Time;durP1;ratioP1;P1;durP2;ratioP2;P2;SDS_P1;SDS_P2;PMS_P1;PMS_P2;Temp;Humidity;BMP_temperature;BMP_pressure;BME280_temperature;BME280_humidity;BME280_pressure;Samples;Min_cycle;Max_cycle;Signal;HPM_P1;HPM_P2
2022/03/20 00:00:53;;;;;;;7.95;5.68;;;;;;;;;;5056487;28;20035;-76
2022/03/20 00:03:20;;;;;;;9.38;4.20;;;;;;;;;;5071711;28;20054;-78
2022/03/20 00:05:47;;;;;;;10.85;5.38;;;;;;;;;;5069204;28;20048;-78
2022/03/20 00:08:13;;;;;;;13.82;5.50;;;;;;;;;;5056784;28;20123;-78
2022/03/20 00:10:42;;;;;;;14.85;5.40;;;;;;;;;;5056105;28;20079;-81
2022/03/20 00:13:09;;;;;;;6.53;4.45;;;;;;;;;;5051771;28;20523;-78
2022/03/20 00:15:35;;;;;;;9.75;4.75;;;;;;;;;;5070522;28;20155;-77
2022/03/20 00:18:01;;;;;;;10.52;5.00;;;;;;;;;;5070223;28;20105;-79
2022/03/20 00:20:27;;;;;;;8.23;4.78;;;;;;;;;;5054047;28;20127;-77
2022/03/20 00:22:56;;;;;;;13.13;5.55;;;;;;;;;;5071996;28;20053;-76
2022/03/20 00:25:22;;;;;;;7.65;4.90;;;;;;;;;;5072310;28;20048;-76
2022/03/20 00:27:47;;;;;;;11.20;5.38;;;;;;;;;;5055262;28;20043;-78
2022/03/20 00:30:13;;;;;;;9.55;5.97;;;;;;;;;;5071944;28;20036;-78
2022/03/20 00:32:40;;;;;;;9.77;5.40;;;;;;;;;;5056500;28;21010;-79
2022/03/20 00:35:06;;;;;;;10.38;5.75;;;;;;;;;;5069110;28;20568;-79
2022/03/20 00:37:32;;;;;;;9.63;4.47;;;;;;;;;;5055573;28;20028;-80
2022/03/20 00:39:58;;;;;;;6.95;5.03;;;;;;;;;;5072392;28;20094;-79
2022/03/20 00:42:26;;;;;;;16.10;5.00;;;;;;;;;;5071956;28;20044;-78
2022/03/20 00:44:52;;;;;;;10.43;4.63;;;;;;;;;;5054795;28;20076;-78
2022/03/20 00:47:18;;;;;;;8.95;4.78;;;;;;;;;;5070411;28;20048;-78
2022/03/20 00:49:44;;;;;;;11.98;4.45;;;;;;;;;;5070753;28;20127;-78
2022/03/20 00:52:10;;;;;;;8.32;5.07;;;;;;;;;;5070810;28;20530;-78
2022/03/20 00:54:36;;;;;;;7.15;4.10;;;;;;;;;;5072133;28;20048;-78
2022/03/20 00:57:02;;;;;;;10.63;5.25;;;;;;;;;;5055645;28;20037;-80
2022/03/20 00:59:28;;;;;;;9.68;5.70;;;;;;;;;;5052699;28;20036;-78
2022/03/20 01:01:55;;;;;;;9.98;4.72;;;;;;;;;;5070279;28;20101;-80
2022/03/20 01:04:21;;;;;;;10.32;4.97;;;;;;;;;;5070599;28;20138;-77
2022/03/20 01:06:47;;;;;;;9.85;4.85;;;;;;;;;;5053378;28;20044;-78
2022/03/20 01:09:13;;;;;;;11.38;5.40;;;;;;;;;;5053043;28;20086;-78
2022/03/20 01:11:40;;;;;;;10.77;5.18;;;;;;;;;;5054505;28;20492;-78
2022/03/20 01:14:07;;;;;;;11.13;5.57;;;;;;;;;;5053690;28;20045;-78
2022/03/20 01:16:33;;;;;;;10.95;5.03;;;;;;;;;;5054764;28;20140;-77
2022/03/20 01:18:59;;;;;;;12.95;5.72;;;;;;;;;;5053869;28;20527;-78
2022/03/20 01:21:25;;;;;;;11.15;5.18;;;;;;;;;;5054842;28;20062;-77
2022/03/20 01:23:51;;;;;;;11.02;4.00;;;;;;;;;;5055323;28;20078;-77
2022/03/20 01:26:17;;;;;;;9.73;5.55;;;;;;;;;;5071627;28;20136;-79
2022/03/20 01:28:43;;;;;;;10.40;5.93;;;;;;;;;;5054011;28;20458;-78
2022/03/20 01:31:10;;;;;;;8.18;4.03;;;;;;;;;;5054955;28;20045;-77
2022/03/20 01:33:36;;;;;;;11.50;5.38;;;;;;;;;;5054544;28;20047;-79
2022/03/20 01:36:02;;;;;;;15.57;6.07;;;;;;;;;;5070187;28;20475;-78
2022/03/20 01:38:28;;;;;;;14.73;5.93;;;;;;;;;;5070013;28;20037;-78
2022/03/20 01:40:54;;;;;;;8.90;5.45;;;;;;;;;;5073516;28;20585;-78
2022/03/20 01:43:20;;;;;;;12.57;5.47;;;;;;;;;;5057032;28;20040;-78
2022/03/20 01:45:46;;;;;;;10.48;4.68;;;;;;;;;;5073771;28;20044;-77
2022/03/20 01:48:12;;;;;;;4.15;2.38;;;;;;;;;;5054995;28;20045;-78
2022/03/20 01:50:39;;;;;;;11.48;5.38;;;;;;;;;;5055897;28;20523;-77
2022/03/20 01:53:05;;;;;;;11.48;5.25;;;;;;;;;;5076218;28;20041;-77
2022/03/20 01:55:32;;;;;;;12.68;5.32;;;;;;;;;;5075578;28;20420;-78
2022/03/20 01:57:58;;;;;;;12.70;5.30;;;;;;;;;;5075723;28;20044;-78
2022/03/20 02:00:25;;;;;;;9.73;4.95;;;;;;;;;;5057877;28;20424;-77
2022/03/20 02:02:51;;;;;;;9.13;4.22;;;;;;;;;;5059008;28;20043;-81
2022/03/20 02:05:17;;;;;;;12.07;5.55;;;;;;;;;;5060228;28;20052;-77
2022/03/20 02:07:47;;;;;;;10.75;5.28;;;;;;;;;;5060283;28;20063;-79
2022/03/20 02:10:13;;;;;;;11.63;5.75;;;;;;;;;;5060626;28;20049;-77
2022/03/20 02:12:40;;;;;;;8.82;4.88;;;;;;;;;;5076970;28;20097;-78
2022/03/20 02:15:09;;;;;;;11.98;5.80;;;;;;;;;;5077811;28;20059;-79
2022/03/20 02:17:36;;;;;;;13.82;5.90;;;;;;;;;;5075246;28;20162;-77
2022/03/20 02:20:04;;;;;;;8.43;4.38;;;;;;;;;;5059911;28;20069;-76
2022/03/20 02:22:33;;;;;;;15.60;6.25;;;;;;;;;;5075020;28;20047;-76
2022/03/20 02:25:04;;;;;;;13.50;6.32;;;;;;;;;;5061704;28;20052;-78
2022/03/20 02:27:32;;;;;;;12.30;5.50;;;;;;;;;;5076837;28;20086;-78
2022/03/20 02:29:58;;;;;;;12.60;6.10;;;;;;;;;;5075905;28;20097;-78
2022/03/20 02:32:31;;;;;;;14.40;5.75;;;;;;;;;;5077429;28;20048;-78
2022/03/20 02:35:04;;;;;;;16.75;6.82;;;;;;;;;;5075852;28;20139;-78
2022/03/20 02:37:31;;;;;;;12.23;6.40;;;;;;;;;;5056623;28;20041;-78
2022/03/20 02:39:58;;;;;;;17.75;7.95;;;;;;;;;;5075864;28;20044;-78
2022/03/20 02:42:26;;;;;;;11.10;6.72;;;;;;;;;;5056613;28;20050;-75
2022/03/20 02:45:06;;;;;;;13.10;6.80;;;;;;;;;;5055802;28;20037;-77
2022/03/20 02:47:33;;;;;;;13.10;6.35;;;;;;;;;;5057996;28;20045;-77
2022/03/20 02:50:00;;;;;;;12.35;6.13;;;;;;;;;;5073882;28;20045;-78
2022/03/20 02:52:32;;;;;;;13.50;6.30;;;;;;;;;;5058907;28;20513;-79
2022/03/20 02:54:58;;;;;;;;;;;;;;;;;;5058915;28;20135;-79
2022/03/20 02:57:23;;;;;;;11.20;5.60;;;;;;;;;;5059953;28;19974;-77
2022/03/20 02:59:49;;;;;;;12.75;6.75;;;;;;;;;;5060568;28;20041;-79
2022/03/20 03:02:15;;;;;;;8.23;5.47;;;;;;;;;;5077747;28;20041;-79
2022/03/20 03:04:42;;;;;;;11.27;5.60;;;;;;;;;;5058332;28;20102;-77
2022/03/20 03:07:08;;;;;;;13.85;7.20;;;;;;;;;;5074289;28;20049;-78
2022/03/20 03:12:19;;;;;;;13.05;6.40;;;;;;;;;;5074539;28;20507;-77
2022/03/20 03:17:30;;;;;;;11.25;6.25;;;;;;;;;;5073247;28;20044;-79
2022/03/20 03:19:56;;;;;;;15.23;7.38;;;;;;;;;;5057029;28;20062;-77
2022/03/20 03:22:22;;;;;;;13.73;6.13;;;;;;;;;;5059320;28;20076;-78
2022/03/20 03:24:48;;;;;;;13.75;6.75;;;;;;;;;;5059093;28;20066;-76
2022/03/20 03:27:14;;;;;;;15.05;7.38;;;;;;;;;;5072369;28;20105;-80
2022/03/20 03:29:40;;;;;;;17.27;7.95;;;;;;;;;;5056552;28;20044;-77
2022/03/20 03:32:06;;;;;;;14.65;7.63;;;;;;;;;;5073983;28;20076;-78
2022/03/20 03:37:20;;;;;;;15.57;6.90;;;;;;;;;;5073702;28;20059;-78
2022/03/20 03:39:46;;;;;;;12.02;7.63;;;;;;;;;;5071837;28;20098;-79
2022/03/20 03:42:12;;;;;;;19.73;8.32;;;;;;;;;;5056371;28;20048;-78
2022/03/20 03:44:39;;;;;;;14.65;7.28;;;;;;;;;;5074593;28;20484;-76
2022/03/20 03:47:05;;;;;;;13.35;6.57;;;;;;;;;;5055925;28;20040;-78
2022/03/20 03:49:32;;;;;;;18.60;7.88;;;;;;;;;;5075486;28;20053;-77
2022/03/20 03:51:58;;;;;;;16.65;8.75;;;;;;;;;;5075209;28;20047;-77
2022/03/20 03:54:24;;;;;;;16.17;8.63;;;;;;;;;;5057538;28;20041;-78
2022/03/20 03:56:50;;;;;;;11.07;7.45;;;;;;;;;;5057074;28;20044;-77
2022/03/20 03:59:17;;;;;;;16.30;8.05;;;;;;;;;;5056310;28;20048;-77
2022/03/20 04:01:43;;;;;;;20.48;8.90;;;;;;;;;;5056079;28;20507;-78
2022/03/20 04:04:09;;;;;;;14.32;7.13;;;;;;;;;;5074170;28;20040;-78
2022/03/20 04:06:35;;;;;;;20.50;8.85;;;;;;;;;;5057313;28;20044;-78
2022/03/20 04:09:01;;;;;;;15.63;7.75;;;;;;;;;;5069485;28;20395;-77
2022/03/20 04:11:27;;;;;;;16.00;7.78;;;;;;;;;;5055141;28;20037;-79
2022/03/20 04:13:53;;;;;;;22.65;9.65;;;;;;;;;;5071637;28;20072;-76
2022/03/20 04:16:19;;;;;;;16.50;9.90;;;;;;;;;;5072697;28;20162;-76
2022/03/20 04:18:45;;;;;;;18.65;8.60;;;;;;;;;;5072014;28;20094;-77
2022/03/20 04:21:11;;;;;;;19.35;9.77;;;;;;;;;;5056091;28;20040;-77
2022/03/20 04:23:48;;;;;;;15.80;8.07;;;;;;;;;;5055541;28;20086;-77
2022/03/20 04:26:17;;;;;;;21.33;9.82;;;;;;;;;;5056209;28;20484;-76
2022/03/20 04:28:47;;;;;;;18.00;8.50;;;;;;;;;;5072912;28;20478;-77
2022/03/20 04:31:17;;;;;;;18.13;9.35;;;;;;;;;;5055385;28;20400;-77
2022/03/20 04:33:48;;;;;;;20.00;9.25;;;;;;;;;;5056736;28;20044;-79
2022/03/20 04:36:14;;;;;;;;;;;;;;;;;;5072111;28;20045;-79
2022/03/20 04:38:40;;;;;;;20.95;8.80;;;;;;;;;;5056597;28;20003;-78
2022/03/20 04:41:06;;;;;;;17.25;9.15;;;;;;;;;;5071898;28;20044;-77
2022/03/20 04:43:32;;;;;;;19.58;9.45;;;;;;;;;;5054803;28;20040;-77
2022/03/20 04:45:58;;;;;;;17.27;8.57;;;;;;;;;;5073134;28;20044;-75
2022/03/20 04:59:23;;;;;;;15.80;9.02;;;;;;;;;;5071627;28;20049;-77
2022/03/20 05:01:50;;;;;;;19.73;9.68;;;;;;;;;;5055496;28;20109;-77
2022/03/20 05:04:16;;;;;;;21.73;9.63;;;;;;;;;;5055627;28;20045;-76
2022/03/20 05:06:43;;;;;;;19.33;9.35;;;;;;;;;;5072956;28;20044;-77
2022/03/20 05:14:38;;;;;;;19.02;10.10;;;;;;;;;;5072599;28;20063;-78
2022/03/20 05:17:08;;;;;;;19.38;10.57;;;;;;;;;;5072022;28;20056;-78
2022/03/20 05:19:35;;;;;;;19.13;10.68;;;;;;;;;;5071810;28;20043;-76
2022/03/20 05:22:02;;;;;;;19.60;10.80;;;;;;;;;;5057602;28;20127;-78
2022/03/20 05:24:28;;;;;;;26.90;10.90;;;;;;;;;;5057210;28;20040;-78
2022/03/20 05:26:54;;;;;;;25.95;12.23;;;;;;;;;;5077349;28;20122;-76
2022/03/20 05:29:20;;;;;;;18.23;8.98;;;;;;;;;;5075530;28;20076;-76
2022/03/20 05:31:46;;;;;;;22.95;10.32;;;;;;;;;;5075445;28;20049;-77
2022/03/20 05:34:12;;;;;;;20.05;9.98;;;;;;;;;;5077048;28;20045;-79
2022/03/20 05:36:38;;;;;;;19.10;9.73;;;;;;;;;;5059126;28;20040;-78
2022/03/20 05:39:05;;;;;;;21.55;12.07;;;;;;;;;;5058232;28;20040;-77
2022/03/20 05:41:47;;;;;;;20.77;10.57;;;;;;;;;;5075397;28;20036;-78
2022/03/20 05:44:17;;;;;;;22.98;10.13;;;;;;;;;;5073983;28;20488;-77
2022/03/20 05:46:46;;;;;;;22.75;11.23;;;;;;;;;;5057655;28;20071;-78
2022/03/20 05:49:19;;;;;;;23.92;11.93;;;;;;;;;;5058306;28;20040;-80
2022/03/20 05:51:46;;;;;;;21.33;10.52;;;;;;;;;;5059520;28;20040;-78
2022/03/20 05:54:12;;;;;;;16.55;10.98;;;;;;;;;;5075666;28;20444;-78
2022/03/20 05:59:23;;;;;;;22.23;11.65;;;;;;;;;;5076873;28;20488;-79
2022/03/20 06:01:52;;;;;;;17.73;9.85;;;;;;;;;;5059428;28;20131;-77
2022/03/20 06:04:18;;;;;;;25.65;11.00;;;;;;;;;;5060037;28;20040;-78
2022/03/20 06:06:44;;;;;;;26.48;13.85;;;;;;;;;;5059810;28;20093;-78
2022/03/20 06:09:10;;;;;;;24.83;13.88;;;;;;;;;;5075989;28;20148;-77
2022/03/20 06:11:36;;;;;;;25.98;14.27;;;;;;;;;;5058432;28;20036;-77
2022/03/20 06:14:06;;;;;;;22.38;12.38;;;;;;;;;;5075544;28;20051;-77
2022/03/20 06:16:32;;;;;;;24.08;12.68;;;;;;;;;;5074913;28;20056;-79
2022/03/20 06:18:58;;;;;;;29.25;14.02;;;;;;;;;;5058936;28;20415;-78
2022/03/20 06:21:25;;;;;;;35.95;16.45;;;;;;;;;;5061547;28;20096;-78
2022/03/20 06:23:53;;;;;;;37.10;18.98;;;;;;;;;;5060960;28;20043;-77
2022/03/20 06:26:24;;;;;;;39.88;18.25;;;;;;;;;;5077397;28;20051;-79
2022/03/20 06:28:54;;;;;;;27.77;13.10;;;;;;;;;;5077094;28;20044;-78
2022/03/20 06:31:20;;;;;;;27.48;12.63;;;;;;;;;;5060752;28;20063;-76
2022/03/20 06:33:46;;;;;;;30.33;13.52;;;;;;;;;;5076356;28;20036;-77
2022/03/20 06:36:12;;;;;;;29.58;14.85;;;;;;;;;;5057532;28;20041;-78
2022/03/20 06:38:38;;;;;;;23.85;13.02;;;;;;;;;;5057685;28;20640;-76
2022/03/20 06:41:05;;;;;;;23.55;13.80;;;;;;;;;;5059157;28;20123;-78
2022/03/20 06:43:31;;;;;;;25.95;13.02;;;;;;;;;;5057116;28;20036;-77
2022/03/20 06:45:58;;;;;;;24.80;12.68;;;;;;;;;;5057715;28;20123;-78
2022/03/20 06:48:24;;;;;;;22.55;12.10;;;;;;;;;;5074513;28;20040;-79
2022/03/20 06:50:51;;;;;;;21.38;12.30;;;;;;;;;;5058381;28;20044;-78
2022/03/20 06:53:18;;;;;;;26.65;12.93;;;;;;;;;;5058051;28;20144;-77
2022/03/20 06:55:44;;;;;;;25.25;13.10;;;;;;;;;;5074254;28;20044;-77
2022/03/20 06:58:10;;;;;;;25.75;12.70;;;;;;;;;;5077581;28;20052;-76
2022/03/20 07:00:37;;;;;;;26.73;12.18;;;;;;;;;;5074142;28;20028;-76
2022/03/20 07:03:06;;;;;;;21.60;11.38;;;;;;;;;;5074609;28;20605;-77
2022/03/20 07:05:32;;;;;;;26.27;13.13;;;;;;;;;;5075181;28;20119;-78
2022/03/20 07:07:58;;;;;;;26.05;11.68;;;;;;;;;;5058456;28;20050;-78
2022/03/20 07:10:25;;;;;;;24.05;12.48;;;;;;;;;;5075279;28;20508;-77
2022/03/20 07:12:51;;;;;;;26.63;12.25;;;;;;;;;;5074884;28;20488;-76
2022/03/20 07:15:20;;;;;;;25.95;12.93;;;;;;;;;;5054186;28;20068;-78
2022/03/20 07:17:48;;;;;;;26.00;13.25;;;;;;;;;;5054932;28;20045;-78
2022/03/20 07:20:16;;;;;;;33.50;14.85;;;;;;;;;;5055851;28;20522;-76
2022/03/20 07:22:43;;;;;;;57.85;20.55;;;;;;;;;;5055735;28;20446;-76
2022/03/20 07:30:39;;;;;;;27.63;13.23;;;;;;;;;;5071688;28;20059;-77
2022/03/20 07:33:05;;;;;;;27.00;13.07;;;;;;;;;;5055434;28;20044;-78
2022/03/20 07:35:32;;;;;;;25.10;12.40;;;;;;;;;;5054933;28;20037;-78
2022/03/20 07:37:58;;;;;;;23.15;11.85;;;;;;;;;;5054816;28;20067;-78
2022/03/20 07:40:24;;;;;;;23.20;11.90;;;;;;;;;;5056906;28;20123;-79
2022/03/20 07:42:50;;;;;;;21.23;11.48;;;;;;;;;;5070696;28;20424;-78
2022/03/20 07:45:21;;;;;;;25.50;13.23;;;;;;;;;;5051456;28;20052;-79
2022/03/20 07:47:47;;;;;;;19.42;10.77;;;;;;;;;;5055994;28;20044;-77
2022/03/20 07:50:13;;;;;;;27.48;13.10;;;;;;;;;;5057093;28;20429;-78
2022/03/20 07:52:39;;;;;;;21.67;11.50;;;;;;;;;;5057022;28;20439;-79
2022/03/20 07:55:05;;;;;;;24.80;13.75;;;;;;;;;;5072894;28;20093;-78
2022/03/20 07:57:31;;;;;;;23.25;12.63;;;;;;;;;;5072928;28;20439;-77
2022/03/20 07:59:58;;;;;;;23.85;12.90;;;;;;;;;;5055736;28;20037;-77
2022/03/20 08:02:25;;;;;;;22.48;12.50;;;;;;;;;;5071518;28;20522;-80
2022/03/20 08:04:51;;;;;;;25.35;13.13;;;;;;;;;;5056919;28;20102;-78
2022/03/20 08:07:19;;;;;;;22.73;11.40;;;;;;;;;;5056137;28;20086;-79
2022/03/20 08:09:45;;;;;;;25.50;14.10;;;;;;;;;;5055256;28;20449;-79
2022/03/20 08:12:11;;;;;;;25.38;12.80;;;;;;;;;;5072530;28;20046;-79
2022/03/20 08:14:39;;;;;;;26.75;13.63;;;;;;;;;;5071484;28;20127;-77
2022/03/20 08:17:08;;;;;;;23.40;12.55;;;;;;;;;;5054799;28;20054;-79
2022/03/20 08:19:35;;;;;;;20.90;12.82;;;;;;;;;;5072792;28;20507;-78
2022/03/20 08:22:05;;;;;;;25.17;14.20;;;;;;;;;;5071720;28;20439;-77
2022/03/20 08:24:31;;;;;;;26.63;13.32;;;;;;;;;;5054731;28;20159;-79
2022/03/20 08:26:57;;;;;;;24.23;12.55;;;;;;;;;;5071940;28;20059;-77
2022/03/20 08:29:23;;;;;;;25.45;13.25;;;;;;;;;;5054891;28;20549;-79
2022/03/20 08:31:49;;;;;;;26.55;14.02;;;;;;;;;;5054990;28;20051;-79
2022/03/20 08:34:16;;;;;;;20.23;12.80;;;;;;;;;;5071943;28;20131;-79
2022/03/20 08:36:42;;;;;;;33.40;15.32;;;;;;;;;;5054585;28;20043;-76
2022/03/20 08:39:08;;;;;;;36.45;16.73;;;;;;;;;;5054283;28;20431;-78
2022/03/20 08:41:34;;;;;;;30.48;15.15;;;;;;;;;;5054324;28;20045;-77
2022/03/20 08:44:01;;;;;;;25.77;13.13;;;;;;;;;;5054293;28;20174;-76
2022/03/20 08:46:27;;;;;;;28.13;14.70;;;;;;;;;;5070163;28;20037;-76
2022/03/20 08:48:53;;;;;;;30.50;15.43;;;;;;;;;;5070697;28;20051;-76
2022/03/20 08:51:19;;;;;;;25.00;14.90;;;;;;;;;;5070729;28;20062;-77
2022/03/20 08:53:45;;;;;;;26.30;14.30;;;;;;;;;;5070079;28;20055;-75
2022/03/20 08:56:11;;;;;;;28.67;14.82;;;;;;;;;;5070221;28;20041;-74
2022/03/20 08:58:37;;;;;;;40.15;13.63;;;;;;;;;;5054358;28;20373;-77
2022/03/20 09:01:03;;;;;;;23.75;13.45;;;;;;;;;;5057515;28;20123;-76
2022/03/20 09:03:29;;;;;;;22.65;13.23;;;;;;;;;;5074048;28;20079;-76
2022/03/20 09:05:55;;;;;;;23.20;14.93;;;;;;;;;;5074093;28;20592;-74
2022/03/20 09:08:21;;;;;;;28.63;14.95;;;;;;;;;;5057300;28;20377;-76
2022/03/20 09:10:51;;;;;;;23.55;14.05;;;;;;;;;;5074072;28;20094;-76
2022/03/20 09:13:17;;;;;;;24.65;14.95;;;;;;;;;;5057207;28;20041;-75
2022/03/20 09:15:43;;;;;;;23.92;15.27;;;;;;;;;;5073599;28;20163;-77
2022/03/20 09:20:54;;;;;;;29.17;16.10;;;;;;;;;;5073864;28;20044;-76
2022/03/20 09:23:20;;;;;;;24.80;14.32;;;;;;;;;;5073667;28;20043;-76
2022/03/20 09:25:46;;;;;;;25.73;14.88;;;;;;;;;;5073661;28;20551;-74
2022/03/20 09:28:12;;;;;;;26.90;16.00;;;;;;;;;;5057361;28;20090;-77
2022/03/20 09:30:39;;;;;;;28.85;16.00;;;;;;;;;;5056912;28;20044;-76
2022/03/20 09:33:06;;;;;;;28.42;15.73;;;;;;;;;;5056678;28;20458;-76
2022/03/20 09:35:33;;;;;;;28.80;14.48;;;;;;;;;;5056626;28;20044;-76
2022/03/20 09:37:59;;;;;;;27.65;15.05;;;;;;;;;;5056774;28;20036;-77
2022/03/20 09:40:25;;;;;;;29.42;15.60;;;;;;;;;;5073253;28;20094;-77
2022/03/20 09:42:51;;;;;;;25.02;14.98;;;;;;;;;;5056787;28;20125;-77
2022/03/20 09:45:18;;;;;;;32.17;15.90;;;;;;;;;;5056809;28;20039;-76
2022/03/20 09:47:44;;;;;;;25.20;14.93;;;;;;;;;;5056469;28;20040;-75
2022/03/20 09:50:11;;;;;;;23.23;13.82;;;;;;;;;;5056324;28;20037;-76
2022/03/20 09:52:38;;;;;;;26.35;13.75;;;;;;;;;;5073071;28;20421;-77
2022/03/20 09:55:05;;;;;;;27.80;15.73;;;;;;;;;;5056451;28;20045;-76
2022/03/20 09:57:31;;;;;;;26.02;14.98;;;;;;;;;;5073266;28;20070;-76
2022/03/20 09:59:57;;;;;;;27.50;14.43;;;;;;;;;;5056365;28;20169;-75
2022/03/20 10:02:27;;;;;;;30.70;15.45;;;;;;;;;;5072963;28;20396;-75
2022/03/20 10:04:59;;;;;;;30.58;15.55;;;;;;;;;;5056264;28;20459;-76
2022/03/20 10:07:27;;;;;;;29.48;15.15;;;;;;;;;;5056289;28;20047;-75
2022/03/20 10:10:12;;;;;;;25.20;14.80;;;;;;;;;;5072308;28;20546;-76
2022/03/20 10:12:41;;;;;;;27.73;14.82;;;;;;;;;;5055912;28;20055;-76
2022/03/20 10:15:09;;;;;;;30.30;14.70;;;;;;;;;;5055900;28;20052;-76
2022/03/20 10:17:36;;;;;;;28.25;15.38;;;;;;;;;;5072854;28;20048;-75
2022/03/20 10:20:15;;;;;;;31.75;16.38;;;;;;;;;;5055954;28;20090;-74
2022/03/20 10:22:41;;;;;;;30.55;15.60;;;;;;;;;;5055977;28;20079;-77
2022/03/20 10:25:09;;;;;;;32.10;15.57;;;;;;;;;;5056286;28;20063;-76
2022/03/20 10:27:35;;;;;;;29.00;15.68;;;;;;;;;;5055862;28;20041;-77
2022/03/20 10:30:01;;;;;;;30.73;15.52;;;;;;;;;;5072379;28;20048;-77
2022/03/20 10:32:27;;;;;;;26.92;15.57;;;;;;;;;;5055881;28;20044;-76
2022/03/20 10:34:58;;;;;;;28.63;15.63;;;;;;;;;;5055783;28;20127;-76
2022/03/20 10:37:43;;;;;;;28.45;15.52;;;;;;;;;;5072579;28;20040;-75
2022/03/20 10:40:16;;;;;;;29.42;15.75;;;;;;;;;;5055444;28;20086;-75
2022/03/20 10:42:44;;;;;;;28.90;15.23;;;;;;;;;;5055471;28;20036;-76
2022/03/20 10:45:11;;;;;;;28.25;15.57;;;;;;;;;;5055474;28;20037;-76
2022/03/20 10:47:37;;;;;;;29.98;16.13;;;;;;;;;;5072031;28;20078;-76
2022/03/20 10:50:07;;;;;;;28.15;15.25;;;;;;;;;;5055425;28;20042;-72
2022/03/20 10:52:36;;;;;;;29.23;15.20;;;;;;;;;;5055308;28;20048;-74
2022/03/20 10:55:07;;;;;;;27.88;16.63;;;;;;;;;;5055181;28;20040;-75
2022/03/20 10:57:34;;;;;;;31.67;17.08;;;;;;;;;;5055200;28;20477;-75
2022/03/20 11:00:03;;;;;;;28.23;15.90;;;;;;;;;;5055473;28;20094;-76
2022/03/20 11:02:29;;;;;;;34.85;18.40;;;;;;;;;;5071990;28;20040;-74
2022/03/20 11:04:55;;;;;;;29.73;15.68;;;;;;;;;;5055113;28;20089;-76
2022/03/20 11:07:23;;;;;;;31.85;16.83;;;;;;;;;;5054942;28;20169;-75
2022/03/20 11:09:49;;;;;;;31.02;16.42;;;;;;;;;;5055162;28;20040;-75
2022/03/20 11:12:18;;;;;;;33.60;16.85;;;;;;;;;;5054853;28;20496;-76
2022/03/20 11:14:45;;;;;;;30.45;16.45;;;;;;;;;;5054645;28;20054;-76
2022/03/20 11:17:16;;;;;;;28.17;14.52;;;;;;;;;;5071400;28;20040;-77
2022/03/20 11:19:46;;;;;;;30.92;16.27;;;;;;;;;;5052336;28;20041;-76
2022/03/20 11:22:14;;;;;;;27.20;15.98;;;;;;;;;;5050822;28;20449;-77
2022/03/20 11:24:41;;;;;;;28.45;15.38;;;;;;;;;;5067545;28;20135;-75
2022/03/20 11:27:11;;;;;;;33.08;16.08;;;;;;;;;;5051393;28;20048;-75
2022/03/20 11:29:48;;;;;;;27.85;15.90;;;;;;;;;;5068173;28;20076;-76
2022/03/20 11:32:15;;;;;;;30.40;16.42;;;;;;;;;;5051652;28;20052;-76
2022/03/20 11:34:43;;;;;;;26.40;15.98;;;;;;;;;;5050946;28;20044;-76
2022/03/20 11:37:10;;;;;;;30.27;16.58;;;;;;;;;;5050380;28;20044;-76
2022/03/20 11:39:38;;;;;;;27.85;14.43;;;;;;;;;;5051032;28;20084;-75
2022/03/20 11:42:22;;;;;;;31.10;15.35;;;;;;;;;;5067474;28;20106;-75
2022/03/20 11:45:01;;;;;;;32.05;16.73;;;;;;;;;;5067427;28;20139;-76
2022/03/20 11:47:31;;;;;;;35.72;16.60;;;;;;;;;;5051033;28;20041;-75
2022/03/20 11:50:06;;;;;;;30.52;15.57;;;;;;;;;;5050726;28;20496;-75
2022/03/20 11:53:00;;;;;;;27.85;16.77;;;;;;;;;;5050848;28;20080;-75
2022/03/20 11:55:36;;;;;;;28.02;14.27;;;;;;;;;;5048896;28;20049;-76
2022/03/20 11:58:24;;;;;;;28.60;15.75;;;;;;;;;;5050467;28;20083;-76
2022/03/20 12:01:12;;;;;;;28.33;16.80;;;;;;;;;;5043422;28;20054;-75
2022/03/20 12:03:57;;;;;;;26.95;15.70;;;;;;;;;;5050574;28;20469;-75
2022/03/20 12:06:33;;;;;;;25.77;15.05;;;;;;;;;;5050908;28;20441;-75
2022/03/20 12:09:11;;;;;;;26.17;15.68;;;;;;;;;;5064709;28;20075;-76
2022/03/20 12:11:46;;;;;;;26.70;15.93;;;;;;;;;;5050132;28;20499;-75
2022/03/20 12:14:32;;;;;;;31.27;16.48;;;;;;;;;;5050418;28;20091;-75
2022/03/20 12:16:59;;;;;;;28.50;15.43;;;;;;;;;;5066969;28;20917;-75
2022/03/20 12:19:37;;;;;;;29.08;15.60;;;;;;;;;;5050282;28;20509;-74
2022/03/20 12:22:03;;;;;;;30.80;15.52;;;;;;;;;;5050375;28;20054;-74
2022/03/20 12:24:35;;;;;;;28.98;15.05;;;;;;;;;;5049815;28;20044;-75
2022/03/20 12:27:23;;;;;;;28.30;16.38;;;;;;;;;;5066682;28;20040;-75
2022/03/20 12:29:53;;;;;;;31.27;16.63;;;;;;;;;;5066770;28;20055;-75
2022/03/20 12:32:19;;;;;;;31.90;16.38;;;;;;;;;;5067171;28;20056;-75
2022/03/20 12:35:06;;;;;;;28.48;15.57;;;;;;;;;;5049579;28;20044;-74
2022/03/20 12:40:06;;;;;;;33.60;16.23;;;;;;;;;;5066681;28;20044;-75
2022/03/20 12:42:33;;;;;;;28.35;16.20;;;;;;;;;;5066676;28;20039;-75
2022/03/20 12:44:59;;;;;;;30.35;16.83;;;;;;;;;;5066678;28;20055;-75
2022/03/20 12:47:26;;;;;;;28.88;15.98;;;;;;;;;;5049863;28;20056;-75
2022/03/20 12:49:54;;;;;;;29.60;15.35;;;;;;;;;;5049552;28;20058;-76
2022/03/20 12:52:21;;;;;;;26.15;16.48;;;;;;;;;;5050281;28;20044;-74
2022/03/20 12:54:55;;;;;;;30.48;15.88;;;;;;;;;;5052899;28;20036;-74
2022/03/20 12:57:35;;;;;;;33.42;16.42;;;;;;;;;;5070305;28;20097;-75
2022/03/20 13:00:09;;;;;;;30.42;16.67;;;;;;;;;;5053279;28;20048;-75
2022/03/20 13:02:52;;;;;;;30.75;15.38;;;;;;;;;;5053206;28;20040;-74
2022/03/20 13:05:18;;;;;;;32.97;17.77;;;;;;;;;;5069939;28;20162;-75
2022/03/20 13:07:44;;;;;;;28.70;15.98;;;;;;;;;;5053395;28;20127;-75
2022/03/20 13:10:13;;;;;;;28.77;16.02;;;;;;;;;;5070362;28;20048;-79
2022/03/20 13:12:52;;;;;;;29.98;15.63;;;;;;;;;;5069994;28;20049;-78
2022/03/20 13:15:23;;;;;;;31.85;17.17;;;;;;;;;;5052960;28;20057;-77
2022/03/20 13:17:49;;;;;;;28.27;15.45;;;;;;;;;;5070081;28;20036;-77
2022/03/20 13:20:16;;;;;;;30.00;16.25;;;;;;;;;;5053305;28;20037;-78
2022/03/20 13:22:42;;;;;;;30.45;16.20;;;;;;;;;;5053373;28;20100;-78
2022/03/20 13:25:16;;;;;;;30.45;16.20;;;;;;;;;;5053332;28;20045;-77
2022/03/20 13:27:43;;;;;;;32.92;16.67;;;;;;;;;;5068804;28;20048;-78
2022/03/20 13:30:09;;;;;;;30.00;16.23;;;;;;;;;;5070163;28;20098;-77
2022/03/20 13:32:35;;;;;;;33.70;16.67;;;;;;;;;;5053056;28;20087;-78
2022/03/20 13:35:01;;;;;;;28.88;15.80;;;;;;;;;;5052977;28;20534;-78
2022/03/20 13:37:27;;;;;;;29.55;16.50;;;;;;;;;;5053170;28;20124;-77
2022/03/20 13:39:55;;;;;;;29.20;16.55;;;;;;;;;;5068321;28;20080;-78
2022/03/20 13:42:21;;;;;;;30.35;16.00;;;;;;;;;;5053295;28;20036;-78
2022/03/20 13:44:48;;;;;;;29.60;16.40;;;;;;;;;;5070644;28;20496;-77
2022/03/20 13:47:15;;;;;;;27.05;14.85;;;;;;;;;;5056693;28;20674;-79
2022/03/20 13:49:41;;;;;;;31.90;16.58;;;;;;;;;;5056678;28;20044;-76
2022/03/20 13:52:17;;;;;;;27.50;15.15;;;;;;;;;;5056924;28;20036;-78
2022/03/20 13:54:58;;;;;;;30.10;16.25;;;;;;;;;;5073044;28;20045;-78
2022/03/20 13:57:27;;;;;;;;;;;;;;;;;;5073722;28;20072;-77
2022/03/20 13:59:55;;;;;;;29.38;15.95;;;;;;;;;;5056256;28;19917;-77
2022/03/20 14:02:22;;;;;;;39.53;17.40;;;;;;;;;;5056583;28;20041;-78
2022/03/20 14:04:50;;;;;;;31.15;16.13;;;;;;;;;;5072879;28;20459;-78
2022/03/20 14:07:19;;;;;;;27.23;15.02;;;;;;;;;;5052861;28;20450;-77
2022/03/20 14:09:45;;;;;;;28.92;16.08;;;;;;;;;;5069241;28;20048;-78
2022/03/20 14:12:27;;;;;;;26.73;15.10;;;;;;;;;;5052228;28;20094;-77
2022/03/20 14:14:53;;;;;;;34.53;16.02;;;;;;;;;;5069091;28;20412;-78
2022/03/20 14:17:19;;;;;;;26.60;16.38;;;;;;;;;;5069281;28;20052;-78
2022/03/20 14:19:46;;;;;;;25.88;14.93;;;;;;;;;;5052237;28;20491;-76
2022/03/20 14:22:12;;;;;;;32.58;15.55;;;;;;;;;;5052419;28;20070;-75
2022/03/20 14:24:50;;;;;;;26.83;14.52;;;;;;;;;;5051960;28;20046;-75
2022/03/20 14:27:25;;;;;;;27.85;16.00;;;;;;;;;;5069091;28;20048;-75
2022/03/20 14:40:59;;;;;;;29.75;16.58;;;;;;;;;;5068567;28;20044;-75
2022/03/20 14:43:26;;;;;;;27.00;16.58;;;;;;;;;;5052033;28;20155;-74
2022/03/20 14:45:59;;;;;;;29.13;16.17;;;;;;;;;;5051572;28;20092;-75
2022/03/20 14:48:25;;;;;;;27.02;15.25;;;;;;;;;;5068196;28;20048;-76
2022/03/20 14:50:52;;;;;;;33.33;17.13;;;;;;;;;;5052169;28;20052;-78
2022/03/20 14:53:21;;;;;;;26.88;15.18;;;;;;;;;;5052299;28;20044;-78
2022/03/20 14:55:47;;;;;;;30.55;15.98;;;;;;;;;;5068475;28;20032;-77
2022/03/20 14:58:13;;;;;;;29.17;14.88;;;;;;;;;;5067678;28;20102;-76
2022/03/20 15:00:41;;;;;;;31.33;16.17;;;;;;;;;;5051730;28;20640;-76
2022/03/20 15:03:07;;;;;;;27.25;14.98;;;;;;;;;;5068498;28;20051;-76
2022/03/20 15:05:33;;;;;;;32.08;16.60;;;;;;;;;;5051651;28;20655;-75
2022/03/20 15:13:29;;;;;;;27.70;15.98;;;;;;;;;;5068129;28;20059;-76
2022/03/20 15:15:55;;;;;;;29.05;15.13;;;;;;;;;;5051083;28;20086;-76
2022/03/20 15:18:21;;;;;;;32.70;16.58;;;;;;;;;;5068301;28;20257;-77
2022/03/20 15:20:47;;;;;;;27.40;15.75;;;;;;;;;;5051304;28;20145;-76
2022/03/20 15:23:13;;;;;;;29.30;15.70;;;;;;;;;;5067763;28;20443;-76